sensor_id;sensor_type;location;lat;lon;timestamp;pressure;altitude;pressure_sealevel;temperature;humidity
18821;BME280;9539;59.332;18.034;2022-08-19T00:02:19;101114.47;;;19.73;100.00
18821;BME280;9539;59.332;18.034;2022-08-19T00:04:46;101114.31;;;19.65;100.00
18821;BME280;9539;59.332;18.034;2022-08-19T00:07:17;101124.41;;;19.63;100.00
18821;BME280;9539;59.332;18.034;2022-08-19T00:09:44;101118.13;;;19.43;100.00
18821;BME280;9539;59.332;18.034;2022-08-19T00:12:11;101130.75;;;19.52;100.00
18821;BME280;9539;59.332;18.034;2022-08-19T00:14:38;101125.69;;;19.49;100.00
18821;BME280;9539;59.332;18.034;2022-08-19T00:17:08;101135.16;;;19.53;100.00
18821;BME280;9539;59.332;18.034;2022-08-19T00:19:35;101130.78;;;19.62;100.00
18821;BME280;9539;59.332;18.034;2022-08-19T00:22:03;101133.03;;;19.66;100.00
18821;BME280;9539;59.332;18.034;2022-08-19T00:24:30;101136.72;;;19.65;100.00
18821;BME280;9539;59.332;18.034;2022-08-19T00:26:57;101144.53;;;19.68;100.00
18821;BME280;9539;59.332;18.034;2022-08-19T00:29:24;101140.53;;;19.72;100.00
18821;BME280;9539;59.332;18.034;2022-08-19T00:31:52;101142.53;;;19.80;100.00
18821;BME280;9539;59.332;18.034;2022-08-19T00:34:22;101138.28;;;19.87;100.00
18821;BME280;9539;59.332;18.034;2022-08-19T00:36:50;101134.00;;;19.84;100.00
18821;BME280;9539;59.332;18.034;2022-08-19T00:39:17;101137.84;;;19.82;100.00
18821;BME280;9539;59.332;18.034;2022-08-19T00:41:45;101126.91;;;19.83;100.00
18821;BME280;9539;59.332;18.034;2022-08-19T00:44:15;101123.22;;;19.84;100.00
18821;BME280;9539;59.332;18.034;2022-08-19T00:46:46;101134.03;;;19.75;100.00
18821;BME280;9539;59.332;18.034;2022-08-19T00:49:16;101130.31;;;19.85;100.00
18821;BME280;9539;59.332;18.034;2022-08-19T00:51:50;101128.91;;;19.91;100.00
18821;BME280;9539;59.332;18.034;2022-08-19T00:54:19;101112.88;;;19.99;100.00
18821;BME280;9539;59.332;18.034;2022-08-19T00:56:48;101117.44;;;19.89;100.00
18821;BME280;9539;59.332;18.034;2022-08-19T00:59:16;101121.09;;;20.07;100.00
18821;BME280;9539;59.332;18.034;2022-08-19T01:01:46;101108.59;;;20.06;100.00
18821;BME280;9539;59.332;18.034;2022-08-19T01:04:13;101099.81;;;20.04;100.00
18821;BME280;9539;59.332;18.034;2022-08-19T01:06:40;101113.41;;;20.22;100.00
18821;BME280;9539;59.332;18.034;2022-08-19T01:09:09;101125.00;;;20.22;100.00
18821;BME280;9539;59.332;18.034;2022-08-19T01:11:38;101088.75;;;20.07;100.00
18821;BME280;9539;59.332;18.034;2022-08-19T01:14:07;101120.03;;;20.27;100.00
18821;BME280;9539;59.332;18.034;2022-08-19T01:16:34;101126.81;;;20.31;100.00
18821;BME280;9539;59.332;18.034;2022-08-19T01:19:04;101110.78;;;20.30;100.00
18821;BME280;9539;59.332;18.034;2022-08-19T01:21:39;101116.78;;;20.33;100.00
18821;BME280;9539;59.332;18.034;2022-08-19T01:24:08;101110.66;;;20.41;100.00
18821;BME280;9539;59.332;18.034;2022-08-19T01:26:38;101104.75;;;20.55;100.00
18821;BME280;9539;59.332;18.034;2022-08-19T01:29:06;101096.53;;;20.57;100.00
18821;BME280;9539;59.332;18.034;2022-08-19T01:31:33;101092.56;;;20.61;100.00
18821;BME280;9539;59.332;18.034;2022-08-19T01:34:01;101096.25;;;20.60;100.00
18821;BME280;9539;59.332;18.034;2022-08-19T01:36:30;101093.91;;;20.47;100.00
18821;BME280;9539;59.332;18.034;2022-08-19T01:38:58;101095.69;;;20.56;100.00
18821;BME280;9539;59.332;18.034;2022-08-19T01:41:26;101093.69;;;20.58;100.00
18821;BME280;9539;59.332;18.034;2022-08-19T01:43:53;101099.94;;;20.59;100.00
18821;BME280;9539;59.332;18.034;2022-08-19T01:46:22;101106.59;;;20.55;100.00
18821;BME280;9539;59.332;18.034;2022-08-19T01:48:48;101103.78;;;20.56;100.00
18821;BME280;9539;59.332;18.034;2022-08-19T01:51:15;101108.31;;;20.56;100.00
18821;BME280;9539;59.332;18.034;2022-08-19T01:53:42;101110.28;;;20.63;100.00
18821;BME280;9539;59.332;18.034;2022-08-19T01:56:09;101108.38;;;20.37;100.00
18821;BME280;9539;59.332;18.034;2022-08-19T01:58:41;101110.38;;;20.25;100.00
18821;BME280;9539;59.332;18.034;2022-08-19T02:01:10;101117.06;;;20.40;100.00
18821;BME280;9539;59.332;18.034;2022-08-19T02:03:37;101106.28;;;20.40;100.00
18821;BME280;9539;59.332;18.034;2022-08-19T02:06:03;101107.06;;;20.50;100.00
18821;BME280;9539;59.332;18.034;2022-08-19T02:08:33;101104.81;;;20.46;100.00
18821;BME280;9539;59.332;18.034;2022-08-19T02:11:01;101101.97;;;20.47;100.00
18821;BME280;9539;59.332;18.034;2022-08-19T02:13:28;101105.22;;;20.51;100.00
18821;BME280;9539;59.332;18.034;2022-08-19T02:15:56;101108.66;;;20.43;100.00
18821;BME280;9539;59.332;18.034;2022-08-19T02:18:23;101105.56;;;20.38;100.00
18821;BME280;9539;59.332;18.034;2022-08-19T02:20:49;101109.66;;;20.42;100.00
18821;BME280;9539;59.332;18.034;2022-08-19T02:23:17;101098.38;;;20.56;100.00
18821;BME280;9539;59.332;18.034;2022-08-19T02:25:45;101105.94;;;20.53;100.00
18821;BME280;9539;59.332;18.034;2022-08-19T02:28:13;101095.69;;;20.56;100.00
18821;BME280;9539;59.332;18.034;2022-08-19T02:30:41;101099.09;;;20.58;100.00
18821;BME280;9539;59.332;18.034;2022-08-19T02:33:09;101105.44;;;20.67;100.00
18821;BME280;9539;59.332;18.034;2022-08-19T02:35:36;101100.41;;;20.54;100.00
18821;BME280;9539;59.332;18.034;2022-08-19T02:38:02;101092.09;;;20.65;100.00
18821;BME280;9539;59.332;18.034;2022-08-19T02:40:49;101093.00;;;20.56;100.00
18821;BME280;9539;59.332;18.034;2022-08-19T02:43:18;101096.41;;;20.49;100.00
18821;BME280;9539;59.332;18.034;2022-08-19T02:45:48;101097.31;;;20.40;100.00
18821;BME280;9539;59.332;18.034;2022-08-19T02:48:18;101106.03;;;20.61;100.00
18821;BME280;9539;59.332;18.034;2022-08-19T02:50:46;101096.25;;;20.60;100.00
18821;BME280;9539;59.332;18.034;2022-08-19T02:53:13;101093.59;;;20.50;100.00
18821;BME280;9539;59.332;18.034;2022-08-19T02:55:44;101105.34;;;20.59;100.00
18821;BME280;9539;59.332;18.034;2022-08-19T02:58:12;101097.28;;;20.49;100.00
18821;BME280;9539;59.332;18.034;2022-08-19T03:00:43;101108.44;;;20.64;100.00
18821;BME280;9539;59.332;18.034;2022-08-19T03:03:11;101105.44;;;20.67;100.00
18821;BME280;9539;59.332;18.034;2022-08-19T03:05:39;101099.63;;;20.62;100.00
18821;BME280;9539;59.332;18.034;2022-08-19T03:08:06;101106.88;;;20.61;100.00
18821;BME280;9539;59.332;18.034;2022-08-19T03:10:40;101106.06;;;20.51;100.00
18821;BME280;9539;59.332;18.034;2022-08-19T03:13:09;101110.94;;;20.38;100.00
18821;BME280;9539;59.332;18.034;2022-08-19T03:15:39;101116.19;;;20.40;100.00
18821;BME280;9539;59.332;18.034;2022-08-19T03:18:06;101118.91;;;20.40;100.00
18821;BME280;9539;59.332;18.034;2022-08-19T03:20:32;101113.34;;;20.31;100.00
18821;BME280;9539;59.332;18.034;2022-08-19T03:23:00;101113.31;;;20.51;100.00
18821;BME280;9539;59.332;18.034;2022-08-19T03:25:27;101110.53;;;20.33;100.00
18821;BME280;9539;59.332;18.034;2022-08-19T03:27:54;101114.34;;;20.30;100.00
18821;BME280;9539;59.332;18.034;2022-08-19T03:30:20;101117.94;;;20.21;100.00
18821;BME280;9539;59.332;18.034;2022-08-19T03:32:48;101126.16;;;20.20;100.00
18821;BME280;9539;59.332;18.034;2022-08-19T03:35:15;101133.22;;;20.40;100.00
18821;BME280;9539;59.332;18.034;2022-08-19T03:37:41;101122.13;;;20.43;100.00
18821;BME280;9539;59.332;18.034;2022-08-19T03:40:10;101126.59;;;20.62;100.00
18821;BME280;9539;59.332;18.034;2022-08-19T03:42:36;101116.16;;;20.77;100.00
18821;BME280;9539;59.332;18.034;2022-08-19T03:45:05;101116.88;;;20.79;100.00
18821;BME280;9539;59.332;18.034;2022-08-19T03:47:32;101115.47;;;20.74;100.00
18821;BME280;9539;59.332;18.034;2022-08-19T03:49:59;101118.56;;;20.80;100.00
18821;BME280;9539;59.332;18.034;2022-08-19T03:52:26;101113.72;;;20.83;100.00
18821;BME280;9539;59.332;18.034;2022-08-19T03:54:52;101106.59;;;20.92;100.00
18821;BME280;9539;59.332;18.034;2022-08-19T03:57:20;101111.34;;;20.80;100.00
18821;BME280;9539;59.332;18.034;2022-08-19T03:59:48;101122.88;;;21.00;100.00
18821;BME280;9539;59.332;18.034;2022-08-19T04:02:14;101122.06;;;20.90;100.00
18821;BME280;9539;59.332;18.034;2022-08-19T04:04:43;101123.53;;;21.02;100.00
18821;BME280;9539;59.332;18.034;2022-08-19T04:07:10;101112.16;;;21.08;100.00
18821;BME280;9539;59.332;18.034;2022-08-19T04:09:38;101124.72;;;20.99;100.00
18821;BME280;9539;59.332;18.034;2022-08-19T04:12:05;101122.22;;;21.16;100.00
18821;BME280;9539;59.332;18.034;2022-08-19T04:14:34;101124.16;;;20.96;100.00
18821;BME280;9539;59.332;18.034;2022-08-19T04:17:01;101117.94;;;21.13;100.00
18821;BME280;9539;59.332;18.034;2022-08-19T04:19:30;101112.47;;;21.05;100.00
18821;BME280;9539;59.332;18.034;2022-08-19T04:21:57;101121.66;;;21.12;100.00
18821;BME280;9539;59.332;18.034;2022-08-19T04:24:24;101122.59;;;21.21;100.00
18821;BME280;9539;59.332;18.034;2022-08-19T04:26:51;101126.63;;;21.17;100.00
18821;BME280;9539;59.332;18.034;2022-08-19T04:29:21;101131.41;;;21.13;100.00
18821;BME280;9539;59.332;18.034;2022-08-19T04:31:53;101104.22;;;21.06;100.00
18821;BME280;9539;59.332;18.034;2022-08-19T04:34:22;101131.13;;;21.26;100.00
18821;BME280;9539;59.332;18.034;2022-08-19T04:36:51;101132.97;;;21.25;100.00
18821;BME280;9539;59.332;18.034;2022-08-19T04:39:21;101128.56;;;21.24;100.00
18821;BME280;9539;59.332;18.034;2022-08-19T04:41:48;101141.34;;;21.22;100.00
18821;BME280;9539;59.332;18.034;2022-08-19T04:44:34;101128.84;;;21.21;100.00
18821;BME280;9539;59.332;18.034;2022-08-19T04:47:02;101132.53;;;21.20;100.00
18821;BME280;9539;59.332;18.034;2022-08-19T04:49:30;101132.59;;;21.10;100.00
18821;BME280;9539;59.332;18.034;2022-08-19T04:51:57;101127.47;;;21.07;100.00
18821;BME280;9539;59.332;18.034;2022-08-19T04:54:25;101139.44;;;21.05;100.00
18821;BME280;9539;59.332;18.034;2022-08-19T04:56:52;101138.34;;;20.98;100.00
18821;BME280;9539;59.332;18.034;2022-08-19T04:59:20;101134.34;;;21.02;100.00
18821;BME280;9539;59.332;18.034;2022-08-19T05:01:47;101135.03;;;21.31;100.00
18821;BME280;9539;59.332;18.034;2022-08-19T05:04:18;101127.78;;;21.32;100.00
18821;BME280;9539;59.332;18.034;2022-08-19T05:06:46;101127.84;;;21.22;100.00
18821;BME280;9539;59.332;18.034;2022-08-19T05:09:13;101125.63;;;21.35;100.00
18821;BME280;9539;59.332;18.034;2022-08-19T05:11:41;101127.84;;;21.40;100.00
18821;BME280;9539;59.332;18.034;2022-08-19T05:14:08;101129.44;;;21.15;100.00
18821;BME280;9539;59.332;18.034;2022-08-19T05:16:37;101133.97;;;21.24;100.00
18821;BME280;9539;59.332;18.034;2022-08-19T05:19:04;101129.56;;;21.23;100.00
18821;BME280;9539;59.332;18.034;2022-08-19T05:21:49;101116.06;;;21.13;100.00
18821;BME280;9539;59.332;18.034;2022-08-19T05:24:34;101124.72;;;20.99;100.00
18821;BME280;9539;59.332;18.034;2022-08-19T05:27:01;101118.41;;;21.08;100.00
18821;BME280;9539;59.332;18.034;2022-08-19T05:29:29;101115.69;;;21.18;100.00
18821;BME280;9539;59.332;18.034;2022-08-19T05:31:57;101096.25;;;21.32;100.00
18821;BME280;9539;59.332;18.034;2022-08-19T05:34:24;101109.53;;;21.26;100.00
18821;BME280;9539;59.332;18.034;2022-08-19T05:36:55;101109.34;;;21.63;100.00
18821;BME280;9539;59.332;18.034;2022-08-19T05:39:24;101108.38;;;21.89;100.00
18821;BME280;9539;59.332;18.034;2022-08-19T05:41:53;101095.16;;;22.04;100.00
18821;BME280;9539;59.332;18.034;2022-08-19T05:44:22;101103.53;;;22.19;100.00
18821;BME280;9539;59.332;18.034;2022-08-19T05:46:49;101102.66;;;22.36;100.00
18821;BME280;9539;59.332;18.034;2022-08-19T05:49:19;101110.22;;;22.32;100.00
18821;BME280;9539;59.332;18.034;2022-08-19T05:51:46;101094.22;;;22.73;100.00
18821;BME280;9539;59.332;18.034;2022-08-19T05:54:14;101098.00;;;22.62;100.00
18821;BME280;9539;59.332;18.034;2022-08-19T05:56:42;101087.72;;;23.08;100.00
18821;BME280;9539;59.332;18.034;2022-08-19T05:59:10;101089.50;;;23.49;100.00
18821;BME280;9539;59.332;18.034;2022-08-19T06:01:38;101083.22;;;24.69;100.00
18821;BME280;9539;59.332;18.034;2022-08-19T06:04:06;101072.22;;;24.62;100.00
18821;BME280;9539;59.332;18.034;2022-08-19T06:06:33;101077.66;;;25.47;100.00
18821;BME280;9539;59.332;18.034;2022-08-19T06:09:00;101074.94;;;25.70;100.00
18821;BME280;9539;59.332;18.034;2022-08-19T06:11:35;101038.66;;;26.44;100.00
18821;BME280;9539;59.332;18.034;2022-08-19T06:14:04;101062.16;;;26.81;100.00
18821;BME280;9539;59.332;18.034;2022-08-19T06:16:33;101055.16;;;27.29;100.00
18821;BME280;9539;59.332;18.034;2022-08-19T06:19:02;101052.50;;;27.15;100.00
18821;BME280;9539;59.332;18.034;2022-08-19T06:21:29;101051.41;;;27.30;100.00
18821;BME280;9539;59.332;18.034;2022-08-19T06:23:57;101052.19;;;27.95;100.00
18821;BME280;9539;59.332;18.034;2022-08-19T06:26:24;101049.34;;;28.37;100.00
18821;BME280;9539;59.332;18.034;2022-08-19T06:28:53;101050.34;;;28.30;100.00
18821;BME280;9539;59.332;18.034;2022-08-19T06:31:24;101046.63;;;28.09;100.00
18821;BME280;9539;59.332;18.034;2022-08-19T06:33:52;101053.53;;;28.40;100.00
18821;BME280;9539;59.332;18.034;2022-08-19T06:36:22;101051.84;;;28.32;100.00
18821;BME280;9539;59.332;18.034;2022-08-19T06:38:52;101059.22;;;28.38;100.00
18821;BME280;9539;59.332;18.034;2022-08-19T06:41:19;101063.16;;;28.70;100.00
18821;BME280;9539;59.332;18.034;2022-08-19T06:43:46;101059.84;;;29.68;100.00
18821;BME280;9539;59.332;18.034;2022-08-19T06:46:16;101064.03;;;29.77;100.00
18821;BME280;9539;59.332;18.034;2022-08-19T06:48:44;101072.19;;;30.50;100.00
18821;BME280;9539;59.332;18.034;2022-08-19T06:51:11;101059.50;;;31.38;100.00
18821;BME280;9539;59.332;18.034;2022-08-19T06:53:40;101065.50;;;30.84;100.00
18821;BME280;9539;59.332;18.034;2022-08-19T06:56:13;101059.84;;;30.79;100.00
18821;BME280;9539;59.332;18.034;2022-08-19T06:58:40;101051.19;;;31.51;99.86
18821;BME280;9539;59.332;18.034;2022-08-19T07:01:07;101068.81;;;31.68;98.47
18821;BME280;9539;59.332;18.034;2022-08-19T07:03:37;101065.31;;;31.55;97.63
18821;BME280;9539;59.332;18.034;2022-08-19T07:06:05;101061.88;;;31.34;98.96
18821;BME280;9539;59.332;18.034;2022-08-19T07:08:33;101060.78;;;31.04;100.00
18821;BME280;9539;59.332;18.034;2022-08-19T07:11:02;101060.56;;;30.54;100.00
18821;BME280;9539;59.332;18.034;2022-08-19T07:13:29;101059.13;;;29.20;100.00
18821;BME280;9539;59.332;18.034;2022-08-19T07:16:03;101062.78;;;29.54;100.00
18821;BME280;9539;59.332;18.034;2022-08-19T07:18:31;101064.72;;;30.70;100.00
18821;BME280;9539;59.332;18.034;2022-08-19T07:21:04;101067.69;;;30.69;100.00
18821;BME280;9539;59.332;18.034;2022-08-19T07:23:32;101067.66;;;30.75;100.00
18821;BME280;9539;59.332;18.034;2022-08-19T07:26:04;101079.72;;;31.12;98.95
18821;BME280;9539;59.332;18.034;2022-08-19T07:28:31;101076.81;;;31.38;96.65
18821;BME280;9539;59.332;18.034;2022-08-19T07:30:58;101071.06;;;30.71;100.00
18821;BME280;9539;59.332;18.034;2022-08-19T07:33:27;101068.72;;;30.74;100.00
18821;BME280;9539;59.332;18.034;2022-08-19T07:35:55;101075.97;;;31.00;98.64
18821;BME280;9539;59.332;18.034;2022-08-19T07:38:23;101074.13;;;30.87;100.00
18821;BME280;9539;59.332;18.034;2022-08-19T07:40:51;101071.72;;;31.42;96.18
18821;BME280;9539;59.332;18.034;2022-08-19T07:43:19;101069.66;;;31.69;94.98
18821;BME280;9539;59.332;18.034;2022-08-19T07:45:50;101069.88;;;31.92;92.20
18821;BME280;9539;59.332;18.034;2022-08-19T07:48:17;101060.19;;;31.58;93.23
18821;BME280;9539;59.332;18.034;2022-08-19T07:50:44;101058.06;;;33.01;85.22
18821;BME280;9539;59.332;18.034;2022-08-19T07:53:11;101058.19;;;32.22;88.61
18821;BME280;9539;59.332;18.034;2022-08-19T07:55:39;101066.69;;;31.39;91.54
18821;BME280;9539;59.332;18.034;2022-08-19T07:58:06;101068.28;;;31.78;92.02
18821;BME280;9539;59.332;18.034;2022-08-19T08:00:33;101065.91;;;32.86;86.10
18821;BME280;9539;59.332;18.034;2022-08-19T08:03:00;101057.88;;;32.30;89.74
18821;BME280;9539;59.332;18.034;2022-08-19T08:05:27;101060.84;;;33.13;83.64
18821;BME280;9539;59.332;18.034;2022-08-19T08:08:12;101067.59;;;31.58;91.03
18821;BME280;9539;59.332;18.034;2022-08-19T08:11:04;101065.28;;;31.86;91.89
18821;BME280;9539;59.332;18.034;2022-08-19T08:13:31;101046.09;;;31.55;93.70
18821;BME280;9539;59.332;18.034;2022-08-19T08:16:00;101057.66;;;31.88;91.48
18821;BME280;9539;59.332;18.034;2022-08-19T08:18:27;101060.00;;;31.60;91.13
18821;BME280;9539;59.332;18.034;2022-08-19T08:20:54;101058.91;;;31.36;94.36
18821;BME280;9539;59.332;18.034;2022-08-19T08:23:22;101059.13;;;31.66;91.86
18821;BME280;9539;59.332;18.034;2022-08-19T08:25:50;101038.88;;;32.28;86.97
18821;BME280;9539;59.332;18.034;2022-08-19T08:28:19;101058.75;;;32.05;87.79
18821;BME280;9539;59.332;18.034;2022-08-19T08:30:47;101048.59;;;31.63;89.61
18821;BME280;9539;59.332;18.034;2022-08-19T08:33:17;101045.53;;;31.96;88.28
18821;BME280;9539;59.332;18.034;2022-08-19T08:35:44;101048.06;;;32.59;83.14
18821;BME280;9539;59.332;18.034;2022-08-19T08:38:11;101047.66;;;31.75;83.99
18821;BME280;9539;59.332;18.034;2022-08-19T08:40:43;101044.31;;;32.53;83.85
18821;BME280;9539;59.332;18.034;2022-08-19T08:43:20;101047.44;;;32.75;81.35
18821;BME280;9539;59.332;18.034;2022-08-19T08:45:52;101053.06;;;32.98;76.58
18821;BME280;9539;59.332;18.034;2022-08-19T08:48:24;101056.06;;;33.08;77.43
18821;BME280;9539;59.332;18.034;2022-08-19T08:50:54;101048.34;;;32.50;79.33
18821;BME280;9539;59.332;18.034;2022-08-19T08:53:24;101058.28;;;31.59;83.19
18821;BME280;9539;59.332;18.034;2022-08-19T08:55:52;101054.97;;;31.82;83.00
18821;BME280;9539;59.332;18.034;2022-08-19T08:58:26;101054.31;;;31.30;84.27
18821;BME280;9539;59.332;18.034;2022-08-19T09:00:56;101048.47;;;32.01;82.28
18821;BME280;9539;59.332;18.034;2022-08-19T09:03:25;101056.03;;;32.67;78.28
18821;BME280;9539;59.332;18.034;2022-08-19T09:05:57;101043.94;;;33.69;70.23
18821;BME280;9539;59.332;18.034;2022-08-19T09:08:33;101045.78;;;31.94;77.14
18821;BME280;9539;59.332;18.034;2022-08-19T09:11:04;101038.06;;;32.94;73.04
18821;BME280;9539;59.332;18.034;2022-08-19T09:13:39;101046.53;;;31.52;80.63
18821;BME280;9539;59.332;18.034;2022-08-19T09:16:11;101036.56;;;32.07;78.57
18821;BME280;9539;59.332;18.034;2022-08-19T09:18:40;101039.53;;;32.67;75.61
18821;BME280;9539;59.332;18.034;2022-08-19T09:21:08;101019.72;;;32.58;72.44
18821;BME280;9539;59.332;18.034;2022-08-19T09:23:35;101025.34;;;32.81;71.19
18821;BME280;9539;59.332;18.034;2022-08-19T09:26:07;101023.22;;;32.10;78.70
18821;BME280;9539;59.332;18.034;2022-08-19T09:28:35;101034.34;;;33.18;72.01
18821;BME280;9539;59.332;18.034;2022-08-19T09:31:02;101036.00;;;32.78;73.72
18821;BME280;9539;59.332;18.034;2022-08-19T09:33:29;101042.47;;;31.86;76.72
18821;BME280;9539;59.332;18.034;2022-08-19T09:36:03;101038.41;;;33.16;69.71
18821;BME280;9539;59.332;18.034;2022-08-19T09:38:30;101035.47;;;32.51;74.10
18821;BME280;9539;59.332;18.034;2022-08-19T09:41:02;101034.72;;;33.63;66.41
18821;BME280;9539;59.332;18.034;2022-08-19T09:43:30;101034.47;;;33.12;69.87
18821;BME280;9539;59.332;18.034;2022-08-19T09:45:58;101023.69;;;34.10;63.47
18821;BME280;9539;59.332;18.034;2022-08-19T09:48:25;101028.84;;;33.71;63.96
18821;BME280;9539;59.332;18.034;2022-08-19T09:50:52;101037.31;;;33.47;66.29
18821;BME280;9539;59.332;18.034;2022-08-19T09:53:19;101033.91;;;33.21;68.82
18821;BME280;9539;59.332;18.034;2022-08-19T09:55:47;101023.56;;;32.39;71.13
18821;BME280;9539;59.332;18.034;2022-08-19T09:58:14;101027.56;;;33.86;65.43
18821;BME280;9539;59.332;18.034;2022-08-19T10:00:41;101027.00;;;34.59;61.65
18821;BME280;9539;59.332;18.034;2022-08-19T10:03:09;101020.41;;;34.88;59.87
18821;BME280;9539;59.332;18.034;2022-08-19T10:05:36;101011.84;;;33.98;64.58
18821;BME280;9539;59.332;18.034;2022-08-19T10:08:17;101013.59;;;35.52;56.54
18821;BME280;9539;59.332;18.034;2022-08-19T10:10:45;101014.03;;;34.71;56.93
18821;BME280;9539;59.332;18.034;2022-08-19T10:13:14;101020.53;;;35.21;56.98
18821;BME280;9539;59.332;18.034;2022-08-19T10:15:41;101001.66;;;34.33;59.19
18821;BME280;9539;59.332;18.034;2022-08-19T10:18:09;101007.84;;;34.92;56.78
18821;BME280;9539;59.332;18.034;2022-08-19T10:20:38;101011.22;;;34.82;58.27
18821;BME280;9539;59.332;18.034;2022-08-19T10:23:07;101011.66;;;34.51;58.69
18821;BME280;9539;59.332;18.034;2022-08-19T10:25:33;101009.94;;;33.10;66.39
18821;BME280;9539;59.332;18.034;2022-08-19T10:28:00;101007.44;;;34.72;59.29
18821;BME280;9539;59.332;18.034;2022-08-19T10:30:27;101008.50;;;33.84;62.51
18821;BME280;9539;59.332;18.034;2022-08-19T10:32:54;101002.41;;;34.05;60.92
18821;BME280;9539;59.332;18.034;2022-08-19T10:35:22;101007.31;;;34.27;58.76
18821;BME280;9539;59.332;18.034;2022-08-19T10:37:50;101003.34;;;34.34;57.33
18821;BME280;9539;59.332;18.034;2022-08-19T10:40:17;101002.47;;;34.45;56.54
18821;BME280;9539;59.332;18.034;2022-08-19T10:42:44;100995.41;;;34.38;59.40
18821;BME280;9539;59.332;18.034;2022-08-19T10:45:10;101004.56;;;34.95;56.18
18821;BME280;9539;59.332;18.034;2022-08-19T10:47:37;100996.91;;;34.29;56.28
18821;BME280;9539;59.332;18.034;2022-08-19T10:50:04;101002.13;;;34.19;55.05
18821;BME280;9539;59.332;18.034;2022-08-19T10:53:03;100986.63;;;33.89;53.96
18821;BME280;9539;59.332;18.034;2022-08-19T10:55:31;100988.41;;;33.84;54.78
18821;BME280;9539;59.332;18.034;2022-08-19T10:58:19;100988.19;;;32.61;56.27
18821;BME280;9539;59.332;18.034;2022-08-19T11:00:52;100993.31;;;33.05;55.80
18821;BME280;9539;59.332;18.034;2022-08-19T11:03:20;100992.03;;;33.19;56.29
18821;BME280;9539;59.332;18.034;2022-08-19T11:05:51;100990.97;;;33.20;53.74
18821;BME280;9539;59.332;18.034;2022-08-19T11:08:24;100989.44;;;32.94;54.32
18821;BME280;9539;59.332;18.034;2022-08-19T11:10:53;100994.28;;;32.81;53.02
18821;BME280;9539;59.332;18.034;2022-08-19T11:13:23;100992.16;;;32.65;52.66
18821;BME280;9539;59.332;18.034;2022-08-19T11:15:57;100995.41;;;32.25;52.93
18821;BME280;9539;59.332;18.034;2022-08-19T11:18:24;100981.03;;;32.41;51.99
18821;BME280;9539;59.332;18.034;2022-08-19T11:20:51;100976.38;;;32.42;53.53
18821;BME280;9539;59.332;18.034;2022-08-19T11:23:18;100973.63;;;32.78;50.38
18821;BME280;9539;59.332;18.034;2022-08-19T11:25:46;100975.81;;;32.40;51.46
18821;BME280;9539;59.332;18.034;2022-08-19T11:28:13;100977.03;;;32.26;51.69
18821;BME280;9539;59.332;18.034;2022-08-19T11:30:40;100970.81;;;31.94;51.80
18821;BME280;9539;59.332;18.034;2022-08-19T11:33:06;100970.34;;;31.79;52.43
18821;BME280;9539;59.332;18.034;2022-08-19T11:35:39;100972.25;;;31.28;53.77
18821;BME280;9539;59.332;18.034;2022-08-19T11:38:05;100978.47;;;31.42;53.64
18821;BME280;9539;59.332;18.034;2022-08-19T11:40:32;100966.69;;;31.66;52.89
18821;BME280;9539;59.332;18.034;2022-08-19T11:43:00;100968.63;;;31.59;59.58
18821;BME280;9539;59.332;18.034;2022-08-19T11:45:28;100974.56;;;31.56;56.73
18821;BME280;9539;59.332;18.034;2022-08-19T11:47:55;100970.31;;;31.60;54.98
18821;BME280;9539;59.332;18.034;2022-08-19T11:50:22;100965.25;;;31.32;55.60
18821;BME280;9539;59.332;18.034;2022-08-19T11:52:50;100982.81;;;31.25;54.33
18821;BME280;9539;59.332;18.034;2022-08-19T11:55:17;100978.59;;;31.29;52.81
18821;BME280;9539;59.332;18.034;2022-08-19T11:57:44;100979.75;;;31.15;53.56
18821;BME280;9539;59.332;18.034;2022-08-19T12:00:14;100975.28;;;31.20;52.99
18821;BME280;9539;59.332;18.034;2022-08-19T12:02:41;100979.38;;;31.36;52.53
18821;BME280;9539;59.332;18.034;2022-08-19T12:05:08;100977.13;;;31.26;52.90
18821;BME280;9539;59.332;18.034;2022-08-19T12:07:35;100981.06;;;31.37;52.05
18821;BME280;9539;59.332;18.034;2022-08-19T12:10:03;100976.06;;;31.52;51.37
18821;BME280;9539;59.332;18.034;2022-08-19T12:12:29;100973.78;;;31.49;51.12
18821;BME280;9539;59.332;18.034;2022-08-19T12:14:56;100967.56;;;31.60;53.20
18821;BME280;9539;59.332;18.034;2022-08-19T12:17:25;100974.22;;;31.46;53.24
18821;BME280;9539;59.332;18.034;2022-08-19T12:19:52;100972.59;;;31.63;51.27
18821;BME280;9539;59.332;18.034;2022-08-19T12:22:19;100972.03;;;31.55;51.61
18821;BME280;9539;59.332;18.034;2022-08-19T12:24:47;100966.31;;;31.31;52.18
18821;BME280;9539;59.332;18.034;2022-08-19T12:27:15;100964.97;;;31.16;52.17
18821;BME280;9539;59.332;18.034;2022-08-19T12:29:41;100969.56;;;31.22;53.55
18821;BME280;9539;59.332;18.034;2022-08-19T12:32:08;100978.44;;;31.24;53.38
18821;BME280;9539;59.332;18.034;2022-08-19T12:34:36;100967.66;;;31.47;52.47
18821;BME280;9539;59.332;18.034;2022-08-19T12:37:04;100962.97;;;31.29;51.35
18821;BME280;9539;59.332;18.034;2022-08-19T12:39:34;100967.06;;;31.20;51.20
18821;BME280;9539;59.332;18.034;2022-08-19T12:42:01;100967.47;;;31.24;51.98
18821;BME280;9539;59.332;18.034;2022-08-19T12:44:28;100970.56;;;31.52;51.26
18821;BME280;9539;59.332;18.034;2022-08-19T12:46:55;100973.28;;;31.34;52.09
18821;BME280;9539;59.332;18.034;2022-08-19T12:49:22;100969.47;;;31.35;52.94
18821;BME280;9539;59.332;18.034;2022-08-19T12:51:52;100975.16;;;31.33;51.93
18821;BME280;9539;59.332;18.034;2022-08-19T12:54:18;100972.25;;;31.53;51.49